createdAt,value
2018-04-22T00:00:03.278Z,20.80
2018-04-22T00:02:29.081Z,20.84
2018-04-22T00:04:55.764Z,20.81
2018-04-22T00:07:21.604Z,20.73
2018-04-22T00:09:47.418Z,20.78
2018-04-22T00:12:13.216Z,20.76
2018-04-22T00:14:39.655Z,20.69
2018-04-22T00:17:05.452Z,20.72
2018-04-22T00:19:32.113Z,20.64
2018-04-22T00:21:57.918Z,20.73
2018-04-22T00:24:24.714Z,20.70
2018-04-22T00:26:50.521Z,20.60
2018-04-22T00:29:16.352Z,20.75
2018-04-22T00:31:42.156Z,20.71
2018-04-22T00:34:07.993Z,20.68
2018-04-22T00:36:33.796Z,20.66
2018-04-22T00:39:00.603Z,20.64
2018-04-22T00:41:27.457Z,20.67
2018-04-22T00:43:54.228Z,20.58
2018-04-22T00:46:20.057Z,20.67
2018-04-22T00:48:45.858Z,20.67
2018-04-22T00:51:11.726Z,20.71
2018-04-22T00:53:43.766Z,20.73
2018-04-22T00:56:09.581Z,20.65
2018-04-22T00:58:35.380Z,20.69
2018-04-22T01:01:01.185Z,20.68
2018-04-22T01:03:26.983Z,20.64
2018-04-22T01:05:52.825Z,20.63
2018-04-22T01:08:18.634Z,20.63
2018-04-22T01:10:44.441Z,20.62
2018-04-22T01:13:10.255Z,20.57
2018-04-22T01:15:36.072Z,20.58
2018-04-22T01:18:01.902Z,20.57
2018-04-22T01:20:27.768Z,20.62
2018-04-22T01:22:53.573Z,20.56
2018-04-22T01:25:19.416Z,20.58
2018-04-22T01:27:45.272Z,20.59
2018-04-22T01:30:11.077Z,20.67
2018-04-22T01:32:36.886Z,20.63
2018-04-22T01:35:02.692Z,20.61
2018-04-22T01:37:28.506Z,20.69
2018-04-22T01:39:54.337Z,20.64
2018-04-22T01:42:20.177Z,20.66
2018-04-22T01:44:45.982Z,20.59
2018-04-22T01:47:11.816Z,20.62
2018-04-22T01:49:37.660Z,20.64
2018-04-22T01:52:03.510Z,20.63
2018-04-22T01:54:29.321Z,20.75
2018-04-22T01:56:55.151Z,20.56
2018-04-22T01:59:20.959Z,20.61
2018-04-22T02:01:46.761Z,20.62
2018-04-22T02:04:12.673Z,20.53
2018-04-22T02:06:38.474Z,20.57
2018-04-22T02:09:04.296Z,20.51
2018-04-22T02:11:30.099Z,20.56
2018-04-22T02:13:55.985Z,20.54
2018-04-22T02:16:21.792Z,20.49
2018-04-22T02:18:47.632Z,20.53
2018-04-22T02:21:13.437Z,20.51
2018-04-22T02:23:39.244Z,20.54
2018-04-22T02:26:05.045Z,20.61
2018-04-22T02:28:30.849Z,20.54
2018-04-22T02:30:56.657Z,20.52
2018-04-22T02:33:22.466Z,20.56
2018-04-22T02:35:48.274Z,20.52
2018-04-22T02:38:14.084Z,20.57
2018-04-22T02:40:39.895Z,20.50
2018-04-22T02:43:05.729Z,20.54
2018-04-22T02:45:31.536Z,20.49
2018-04-22T02:47:57.376Z,20.52
2018-04-22T02:50:23.180Z,20.48
2018-04-22T02:52:48.984Z,20.60
2018-04-22T02:55:14.804Z,20.47
2018-04-22T02:57:40.617Z,20.44
2018-04-22T03:00:06.424Z,20.51
2018-04-22T03:02:32.228Z,20.61
2018-04-22T03:04:58.093Z,20.59
2018-04-22T03:07:23.896Z,20.47
2018-04-22T03:09:49.702Z,20.44
2018-04-22T03:12:15.509Z,20.54
2018-04-22T03:14:41.313Z,20.45
2018-04-22T03:17:07.127Z,20.53
2018-04-22T03:19:32.968Z,20.46
2018-04-22T03:21:58.795Z,20.46
2018-04-22T03:24:24.632Z,20.50
2018-04-22T03:26:50.433Z,20.51
2018-04-22T03:29:17.314Z,20.51
2018-04-22T03:31:43.149Z,20.54
2018-04-22T03:34:08.989Z,20.54
2018-04-22T03:36:34.794Z,20.59
2018-04-22T03:39:00.633Z,20.53
2018-04-22T03:41:26.473Z,20.56
2018-04-22T03:43:52.308Z,20.55
2018-04-22T03:46:18.140Z,20.48
2018-04-22T03:48:43.975Z,20.46
2018-04-22T03:51:09.793Z,20.58
2018-04-22T03:53:35.602Z,20.50
2018-04-22T03:56:01.445Z,20.53
2018-04-22T03:58:27.260Z,20.44
2018-04-22T04:00:53.060Z,20.49
2018-04-22T04:03:18.869Z,20.49
2018-04-22T04:05:44.706Z,20.45
2018-04-22T04:08:10.641Z,20.45
2018-04-22T04:10:36.457Z,20.51
2018-04-22T04:13:02.260Z,20.50
2018-04-22T04:15:28.093Z,20.56
2018-04-22T04:17:57.976Z,20.45
2018-04-22T04:20:30.096Z,20.51
2018-04-22T04:22:56.056Z,20.53
2018-04-22T04:25:39.027Z,20.43
2018-04-22T04:28:04.870Z,20.40
2018-04-22T04:30:30.677Z,20.55
2018-04-22T04:32:56.504Z,20.46
2018-04-22T04:35:22.336Z,20.44
2018-04-22T04:37:48.147Z,20.50
2018-04-22T04:40:13.976Z,20.44
2018-04-22T04:42:39.867Z,20.46
2018-04-22T04:45:05.682Z,20.54
2018-04-22T04:47:31.537Z,20.49
2018-04-22T04:49:57.396Z,20.43
2018-04-22T04:52:23.204Z,20.56
2018-04-22T04:54:49.024Z,20.37
2018-04-22T04:57:14.829Z,20.38
2018-04-22T04:59:40.648Z,20.52
2018-04-22T05:02:06.455Z,20.49
2018-04-22T05:04:32.312Z,20.54
2018-04-22T05:06:58.161Z,20.57
2018-04-22T05:09:23.969Z,20.60
2018-04-22T05:11:49.806Z,20.62
2018-04-22T05:14:15.616Z,20.63
2018-04-22T05:16:41.425Z,20.63
2018-04-22T05:19:07.225Z,20.74
2018-04-22T05:21:33.036Z,20.73
2018-04-22T05:23:58.844Z,20.70
2018-04-22T05:26:24.644Z,20.71
2018-04-22T05:28:50.481Z,20.69
2018-04-22T05:31:16.379Z,20.70
2018-04-22T05:33:42.172Z,20.70
2018-04-22T05:36:07.978Z,20.67
2018-04-22T05:38:33.780Z,20.70
2018-04-22T05:40:59.585Z,20.67
2018-04-22T05:43:25.395Z,20.71
2018-04-22T05:45:51.208Z,20.71
2018-04-22T05:48:17.066Z,20.68
2018-04-22T05:50:42.931Z,20.74
2018-04-22T05:53:08.772Z,20.65
2018-04-22T05:55:34.633Z,20.72
2018-04-22T05:58:00.439Z,20.69
2018-04-22T06:00:26.273Z,20.79
2018-04-22T06:02:52.077Z,20.73
2018-04-22T06:05:17.917Z,20.76
2018-04-22T06:07:43.834Z,20.71
2018-04-22T06:10:09.642Z,20.68
2018-04-22T06:12:35.472Z,20.71
2018-04-22T06:15:01.286Z,20.77
2018-04-22T06:17:27.121Z,20.82
2018-04-22T06:19:52.953Z,20.84
2018-04-22T06:22:18.785Z,20.89
2018-04-22T06:24:44.612Z,20.83
2018-04-22T06:27:10.447Z,20.84
2018-04-22T06:29:36.280Z,20.90
2018-04-22T06:32:02.085Z,20.94
2018-04-22T06:34:27.940Z,20.93
2018-04-22T06:36:53.815Z,21.08
2018-04-22T06:39:19.622Z,21.07
2018-04-22T06:41:45.473Z,21.11
2018-04-22T06:44:11.286Z,21.01
2018-04-22T06:46:37.097Z,21.00
2018-04-22T06:49:02.913Z,21.16
2018-04-22T06:51:28.756Z,21.20
2018-04-22T06:53:54.650Z,21.18
2018-04-22T06:56:20.457Z,21.18
2018-04-22T06:58:46.320Z,21.23
2018-04-22T07:01:12.116Z,21.25
2018-04-22T07:03:37.957Z,21.16
2018-04-22T07:06:03.773Z,21.20
2018-04-22T07:08:29.580Z,21.21
2018-04-22T07:10:55.791Z,21.22
2018-04-22T07:13:21.596Z,21.27
2018-04-22T07:15:47.440Z,21.26
2018-04-22T07:18:13.253Z,21.24
2018-04-22T07:20:39.058Z,21.25
2018-04-22T07:23:04.872Z,21.24
2018-04-22T07:25:31.485Z,21.26
2018-04-22T07:27:57.287Z,21.27
2018-04-22T07:30:23.088Z,21.24
2018-04-22T07:32:48.912Z,21.25
2018-04-22T07:35:14.780Z,21.24
2018-04-22T07:37:40.705Z,21.27
2018-04-22T07:40:06.566Z,21.24
2018-04-22T07:42:32.409Z,21.23
2018-04-22T07:44:58.229Z,21.24
2018-04-22T07:47:24.040Z,21.24
2018-04-22T07:49:49.877Z,21.19
2018-04-22T07:52:15.701Z,21.25
2018-04-22T07:54:41.508Z,21.24
2018-04-22T07:57:07.315Z,21.21
2018-04-22T07:59:33.120Z,21.20
2018-04-22T08:01:58.924Z,21.24
2018-04-22T08:04:24.728Z,21.25
2018-04-22T08:06:50.553Z,21.25
2018-04-22T08:09:16.404Z,21.28
2018-04-22T08:11:42.209Z,21.26
2018-04-22T08:14:08.058Z,21.29
2018-04-22T08:16:33.867Z,21.29
2018-04-22T08:18:59.704Z,21.27
2018-04-22T08:21:25.512Z,21.26
2018-04-22T08:23:51.316Z,21.26
2018-04-22T08:26:17.128Z,21.25
2018-04-22T08:28:42.933Z,21.24
2018-04-22T08:31:08.749Z,21.27
2018-04-22T08:33:34.572Z,21.28
2018-04-22T08:36:00.380Z,21.24
2018-04-22T08:38:26.201Z,21.27
2018-04-22T08:40:52.008Z,21.26
2018-04-22T08:43:17.816Z,21.22
2018-04-22T08:45:43.765Z,21.25
2018-04-22T08:48:09.574Z,21.26
2018-04-22T08:50:35.394Z,21.24
2018-04-22T08:53:01.238Z,21.26
2018-04-22T08:55:27.052Z,21.24
2018-04-22T08:57:52.900Z,21.26
2018-04-22T09:00:18.732Z,21.23
2018-04-22T09:02:44.531Z,21.25
2018-04-22T09:05:10.332Z,21.22
2018-04-22T09:07:36.137Z,21.22
2018-04-22T09:10:01.957Z,21.22
2018-04-22T09:12:27.917Z,21.26
2018-04-22T09:14:53.720Z,21.24
2018-04-22T09:17:19.524Z,21.24
2018-04-22T09:19:45.332Z,21.27
2018-04-22T09:22:11.134Z,21.26
2018-04-22T09:24:36.944Z,21.28
2018-04-22T09:27:02.748Z,21.28
2018-04-22T09:29:28.556Z,21.27
2018-04-22T09:31:54.365Z,21.27
2018-04-22T09:34:20.169Z,21.26
2018-04-22T09:36:45.976Z,21.27
2018-04-22T09:39:11.791Z,21.23
2018-04-22T09:41:37.601Z,21.25
2018-04-22T09:44:03.449Z,21.23
2018-04-22T09:46:29.255Z,21.24
2018-04-22T09:48:55.065Z,21.27
2018-04-22T09:51:20.877Z,21.25
2018-04-22T09:53:46.716Z,21.22
2018-04-22T09:56:12.549Z,21.27
2018-04-22T09:58:38.381Z,21.22
2018-04-22T10:01:04.232Z,21.20
2018-04-22T10:03:30.130Z,21.21
2018-04-22T10:06:00.848Z,21.22
2018-04-22T10:08:26.653Z,21.16
2018-04-22T10:10:52.624Z,21.17
2018-04-22T10:13:18.529Z,21.19
2018-04-22T10:15:44.421Z,21.19
2018-04-22T10:18:10.229Z,21.18
2018-04-22T10:20:36.056Z,21.20
2018-04-22T10:23:01.900Z,21.22
2018-04-22T10:25:27.713Z,21.20
2018-04-22T10:27:53.525Z,21.21
2018-04-22T10:30:19.336Z,21.19
2018-04-22T10:32:45.169Z,21.19
2018-04-22T10:35:10.977Z,21.21
2018-04-22T10:37:36.784Z,21.20
2018-04-22T10:40:02.623Z,21.17
2018-04-22T10:42:28.443Z,21.21
2018-04-22T10:44:54.282Z,21.23
2018-04-22T10:47:20.180Z,21.25
2018-04-22T10:49:45.992Z,21.17
2018-04-22T10:52:11.858Z,21.19
2018-04-22T10:54:37.664Z,21.17
2018-04-22T10:57:03.468Z,21.19
2018-04-22T10:59:29.277Z,21.23
2018-04-22T11:01:55.089Z,21.21
2018-04-22T11:04:20.922Z,21.22
2018-04-22T11:06:46.768Z,21.22
2018-04-22T11:09:12.692Z,21.26
2018-04-22T11:11:38.540Z,21.27
2018-04-22T11:14:04.343Z,21.23
2018-04-22T11:16:30.253Z,21.26
2018-04-22T11:18:56.062Z,21.27
2018-04-22T11:21:21.920Z,21.27
2018-04-22T11:23:47.733Z,21.26
2018-04-22T11:26:13.536Z,21.26
2018-04-22T11:28:39.421Z,21.23
2018-04-22T11:31:05.249Z,21.27
2018-04-22T11:33:31.664Z,21.28
2018-04-22T11:35:57.470Z,21.29
2018-04-22T11:38:23.291Z,21.28
2018-04-22T11:40:49.105Z,21.28
2018-04-22T11:43:14.909Z,21.31
2018-04-22T11:45:40.714Z,21.31
2018-04-22T11:48:06.520Z,21.27
2018-04-22T11:50:32.418Z,21.29
2018-04-22T11:52:58.231Z,21.32
2018-04-22T11:55:24.072Z,21.32
2018-04-22T11:57:49.880Z,21.31
2018-04-22T12:00:15.709Z,21.31
2018-04-22T12:02:41.518Z,21.31
2018-04-22T12:05:07.325Z,21.30
2018-04-22T12:07:33.137Z,21.30
2018-04-22T12:09:59.007Z,21.28
2018-04-22T12:12:24.844Z,21.28
2018-04-22T12:14:50.650Z,21.27
2018-04-22T12:17:16.465Z,21.26
2018-04-22T12:19:42.274Z,21.29
2018-04-22T12:22:08.080Z,21.27
2018-04-22T12:24:33.880Z,21.28
2018-04-22T12:26:59.738Z,21.26
2018-04-22T12:29:25.676Z,21.29
2018-04-22T12:31:51.514Z,21.25
2018-04-22T12:34:17.355Z,21.28
2018-04-22T12:36:43.160Z,21.27
2018-04-22T12:39:08.969Z,21.22
2018-04-22T12:41:34.799Z,21.26
2018-04-22T12:44:00.656Z,21.25
2018-04-22T12:46:26.469Z,21.25
2018-04-22T12:48:52.268Z,21.20
2018-04-22T12:51:18.077Z,21.25
2018-04-22T12:53:43.893Z,21.26
2018-04-22T12:56:09.704Z,21.25
2018-04-22T12:58:35.540Z,21.30
2018-04-22T13:01:01.429Z,21.26
2018-04-22T13:03:27.246Z,21.26
2018-04-22T13:05:53.056Z,21.28
2018-04-22T13:08:18.877Z,21.31
2018-04-22T13:10:44.688Z,21.29
2018-04-22T13:13:10.497Z,21.25
2018-04-22T13:15:36.305Z,21.27
2018-04-22T13:18:02.113Z,21.21
2018-04-22T13:20:27.929Z,21.22
2018-04-22T13:22:53.740Z,21.23
2018-04-22T13:25:19.554Z,21.23
2018-04-22T13:27:45.365Z,21.23
2018-04-22T13:30:11.176Z,21.25
2018-04-22T13:32:37.052Z,21.20
2018-04-22T13:35:02.856Z,21.23
2018-04-22T13:37:28.669Z,21.21
2018-04-22T13:39:54.517Z,21.23
2018-04-22T13:42:20.433Z,21.24
2018-04-22T13:44:46.300Z,21.20
2018-04-22T13:47:12.137Z,21.23
2018-04-22T13:49:38.010Z,21.19
2018-04-22T13:52:03.848Z,21.20
2018-04-22T13:54:29.649Z,21.20
2018-04-22T13:56:55.461Z,21.21
2018-04-22T13:59:21.292Z,21.21
2018-04-22T14:01:47.101Z,21.19
2018-04-22T14:04:12.905Z,21.17
2018-04-22T14:06:38.709Z,21.19
2018-04-22T14:09:04.529Z,21.21
2018-04-22T14:11:30.365Z,21.18
2018-04-22T14:13:56.176Z,21.18
2018-04-22T14:16:22.041Z,21.20
2018-04-22T14:18:47.848Z,21.19
2018-04-22T14:21:13.699Z,21.18
2018-04-22T14:23:39.504Z,21.17
2018-04-22T14:26:05.349Z,21.18
2018-04-22T14:28:31.160Z,21.19
2018-04-22T14:30:57.065Z,21.17
2018-04-22T14:33:22.868Z,21.17
2018-04-22T14:35:48.680Z,21.16
2018-04-22T14:38:14.484Z,21.16
2018-04-22T14:40:40.285Z,21.19
2018-04-22T14:43:06.093Z,21.19
2018-04-22T14:45:38.086Z,21.16
2018-04-22T14:48:04.872Z,21.16
2018-04-22T14:50:30.688Z,21.17
2018-04-22T14:52:56.539Z,21.17
2018-04-22T14:55:22.344Z,21.19
2018-04-22T14:57:48.174Z,21.20
2018-04-22T15:00:14.001Z,21.19
2018-04-22T15:02:39.815Z,21.19
2018-04-22T15:05:05.621Z,21.23
2018-04-22T15:07:31.429Z,21.26
2018-04-22T15:09:57.249Z,21.26
2018-04-22T15:12:23.053Z,21.26
2018-04-22T15:14:48.860Z,21.28
2018-04-22T15:17:14.709Z,21.27
2018-04-22T15:19:40.512Z,21.26
2018-04-22T15:22:06.321Z,21.27
2018-04-22T15:24:32.141Z,21.27
2018-04-22T15:26:57.944Z,21.29
2018-04-22T15:29:23.744Z,21.30
2018-04-22T15:31:49.549Z,21.29
2018-04-22T15:34:15.356Z,21.28
2018-04-22T15:36:41.172Z,21.29
2018-04-22T15:39:07.974Z,21.28
2018-04-22T15:41:33.780Z,21.28
2018-04-22T15:44:01.453Z,21.30
2018-04-22T15:46:27.527Z,21.28
2018-04-22T15:48:53.481Z,21.28
2018-04-22T15:51:19.312Z,21.29
2018-04-22T15:53:46.205Z,21.29
2018-04-22T15:56:12.164Z,21.28
2018-04-22T15:58:37.972Z,21.26
2018-04-22T16:01:03.781Z,21.26
2018-04-22T16:03:29.637Z,21.28
2018-04-22T16:05:55.441Z,21.26
2018-04-22T16:08:21.258Z,21.28
2018-04-22T16:10:47.089Z,21.27
2018-04-22T16:13:12.898Z,21.26
2018-04-22T16:15:38.767Z,21.28
2018-04-22T16:18:04.572Z,21.28
2018-04-22T16:20:30.407Z,21.30
2018-04-22T16:22:56.216Z,21.31
2018-04-22T16:25:22.028Z,21.29
2018-04-22T16:27:47.829Z,21.28
2018-04-22T16:30:13.643Z,21.30
2018-04-22T16:32:39.453Z,21.29
2018-04-22T16:35:05.252Z,21.29
2018-04-22T16:37:31.056Z,21.29
2018-04-22T16:39:56.859Z,21.29
2018-04-22T16:42:23.633Z,21.29
2018-04-22T16:44:49.466Z,21.27
2018-04-22T16:47:15.272Z,21.24
2018-04-22T16:49:41.079Z,21.28
2018-04-22T16:52:06.906Z,21.26
2018-04-22T16:54:32.711Z,21.25
2018-04-22T16:56:58.520Z,21.26
2018-04-22T16:59:24.328Z,21.26
2018-04-22T17:01:50.203Z,21.27
2018-04-22T17:04:16.034Z,21.24
2018-04-22T17:06:41.905Z,21.24
2018-04-22T17:09:07.713Z,21.24
2018-04-22T17:11:33.522Z,21.23
2018-04-22T17:13:59.330Z,21.24
2018-04-22T17:16:25.177Z,21.24
2018-04-22T17:18:50.977Z,21.22
2018-04-22T17:21:16.779Z,21.24
2018-04-22T17:23:42.588Z,21.24
2018-04-22T17:26:08.428Z,21.22
2018-04-22T17:28:34.276Z,21.21
2018-04-22T17:31:00.098Z,21.21
2018-04-22T17:33:25.904Z,21.25
2018-04-22T17:35:51.717Z,21.30
2018-04-22T17:38:17.529Z,21.39
2018-04-22T17:40:43.350Z,21.48
2018-04-22T17:43:09.200Z,21.55
2018-04-22T17:45:35.015Z,21.60
2018-04-22T17:48:00.849Z,21.64
2018-04-22T17:50:26.651Z,21.65
2018-04-22T17:52:52.499Z,21.67
2018-04-22T17:55:18.312Z,21.68
2018-04-22T17:57:44.124Z,21.66
2018-04-22T18:00:09.941Z,21.67
2018-04-22T18:02:35.750Z,21.65
2018-04-22T18:05:01.570Z,21.64
2018-04-22T18:07:27.497Z,21.61
2018-04-22T18:09:53.299Z,21.63
2018-04-22T18:12:19.113Z,21.64
2018-04-22T18:14:44.961Z,21.62
2018-04-22T18:17:10.780Z,21.61
2018-04-22T18:19:36.592Z,21.61
2018-04-22T18:22:02.395Z,21.60
2018-04-22T18:24:28.235Z,21.59
2018-04-22T18:26:54.074Z,21.58
2018-04-22T18:29:20.123Z,21.56
2018-04-22T18:31:45.972Z,21.56
2018-04-22T18:34:11.787Z,21.56
2018-04-22T18:36:38.664Z,21.54
2018-04-22T18:39:04.486Z,21.47
2018-04-22T18:41:31.307Z,21.45
2018-04-22T18:43:57.114Z,21.44
2018-04-22T18:46:22.950Z,21.41
2018-04-22T18:48:48.777Z,21.41
2018-04-22T18:51:14.642Z,21.40
2018-04-22T18:53:40.481Z,21.38
2018-04-22T18:56:06.317Z,21.38
2018-04-22T18:58:32.119Z,21.40
2018-04-22T19:00:57.957Z,21.38
2018-04-22T19:03:23.793Z,21.36
2018-04-22T19:05:49.641Z,21.38
2018-04-22T19:08:15.452Z,21.34
2018-04-22T19:10:41.270Z,21.36
2018-04-22T19:13:07.084Z,21.35
2018-04-22T19:15:32.928Z,21.33
2018-04-22T19:17:58.742Z,21.32
2018-04-22T19:20:24.552Z,21.34
2018-04-22T19:22:50.471Z,21.34
2018-04-22T19:25:16.295Z,21.33
2018-04-22T19:27:42.109Z,21.33
2018-04-22T19:30:07.916Z,21.32
2018-04-22T19:32:33.861Z,21.33
2018-04-22T19:34:59.665Z,21.34
2018-04-22T19:37:25.606Z,21.32
2018-04-22T19:39:51.412Z,21.35
2018-04-22T19:42:17.220Z,21.35
2018-04-22T19:44:43.031Z,21.35
2018-04-22T19:47:08.872Z,21.34
2018-04-22T19:49:34.701Z,21.37
2018-04-22T19:52:00.511Z,21.29
2018-04-22T19:54:26.361Z,21.37
2018-04-22T19:56:52.175Z,21.36
2018-04-22T19:59:18.025Z,21.36
2018-04-22T20:01:43.840Z,21.33
2018-04-22T20:04:09.648Z,21.36
2018-04-22T20:06:35.454Z,21.32
2018-04-22T20:09:01.267Z,21.35
2018-04-22T20:11:27.075Z,21.36
2018-04-22T20:13:52.879Z,21.36
2018-04-22T20:16:18.714Z,21.36
2018-04-22T20:18:44.517Z,21.38
2018-04-22T20:21:10.426Z,21.41
2018-04-22T20:23:36.192Z,21.37
2018-04-22T20:26:02.001Z,21.37
2018-04-22T20:28:27.809Z,21.37
2018-04-22T20:30:53.700Z,21.35
2018-04-22T20:33:19.625Z,21.37
2018-04-22T20:35:45.590Z,21.34
2018-04-22T20:38:11.396Z,21.34
2018-04-22T20:40:37.199Z,21.31
2018-04-22T20:43:03.005Z,21.29
2018-04-22T20:45:28.807Z,21.28
2018-04-22T20:47:54.618Z,21.28
2018-04-22T20:50:20.600Z,21.29
2018-04-22T20:52:46.413Z,21.31
2018-04-22T20:55:12.216Z,21.35
2018-04-22T20:57:38.057Z,21.33
2018-04-22T21:00:03.990Z,21.34
2018-04-22T21:02:29.817Z,21.35
2018-04-22T21:04:55.732Z,21.34
2018-04-22T21:07:21.546Z,21.35
2018-04-22T21:09:47.534Z,21.34
2018-04-22T21:12:13.336Z,21.34
2018-04-22T21:14:39.177Z,21.36
2018-04-22T21:17:04.989Z,21.36
2018-04-22T21:19:30.797Z,21.35
2018-04-22T21:21:56.676Z,21.36
2018-04-22T21:24:22.556Z,21.33
2018-04-22T21:26:48.361Z,21.36
2018-04-22T21:29:14.434Z,21.32
2018-04-22T21:31:40.356Z,21.32
2018-04-22T21:34:06.169Z,21.29
2018-04-22T21:36:31.989Z,21.27
2018-04-22T21:38:57.798Z,21.33
2018-04-22T21:41:23.609Z,21.36
2018-04-22T21:43:49.449Z,21.38
2018-04-22T21:46:15.255Z,21.38
2018-04-22T21:48:41.089Z,21.29
2018-04-22T21:51:07.125Z,21.37
2018-04-22T21:53:32.989Z,21.34
2018-04-22T21:55:58.858Z,21.34
2018-04-22T21:58:24.678Z,21.36
2018-04-22T22:00:50.490Z,21.35
2018-04-22T22:03:16.292Z,21.35
2018-04-22T22:05:42.277Z,21.37
2018-04-22T22:08:08.080Z,21.35
2018-04-22T22:10:33.917Z,21.35
2018-04-22T22:12:59.756Z,21.34
2018-04-22T22:15:25.579Z,21.38
2018-04-22T22:17:52.354Z,21.41
2018-04-22T22:20:18.156Z,21.45
2018-04-22T22:22:43.956Z,21.53
2018-04-22T22:25:09.757Z,21.59
2018-04-22T22:27:35.564Z,21.63
2018-04-22T22:30:01.370Z,21.68
2018-04-22T22:32:27.287Z,21.67
2018-04-22T22:34:53.084Z,21.67
2018-04-22T22:37:18.929Z,21.62
2018-04-22T22:39:44.741Z,21.64
2018-04-22T22:42:10.550Z,21.62
2018-04-22T22:44:36.436Z,21.60
2018-04-22T22:47:02.276Z,21.59
2018-04-22T22:49:28.168Z,21.59
2018-04-22T22:51:53.977Z,21.59
2018-04-22T22:54:19.866Z,21.57
2018-04-22T22:56:45.693Z,21.56
2018-04-22T22:59:11.500Z,21.54
2018-04-22T23:01:37.337Z,21.54
2018-04-22T23:04:03.141Z,21.51
2018-04-22T23:06:28.950Z,21.56
2018-04-22T23:08:54.752Z,21.52
2018-04-22T23:11:20.556Z,21.52
2018-04-22T23:13:46.361Z,21.52
2018-04-22T23:16:12.188Z,21.53
2018-04-22T23:18:37.992Z,21.51
2018-04-22T23:21:03.792Z,21.53
2018-04-22T23:23:29.598Z,21.54
2018-04-22T23:25:55.404Z,21.54
2018-04-22T23:28:21.236Z,21.55
2018-04-22T23:30:47.058Z,21.53
2018-04-22T23:33:12.896Z,21.49
2018-04-22T23:35:38.701Z,21.54
2018-04-22T23:38:04.505Z,21.55
2018-04-22T23:40:30.300Z,21.57
2018-04-22T23:42:57.294Z,21.56
2018-04-22T23:45:23.103Z,21.53
2018-04-22T23:47:48.937Z,21.53
2018-04-22T23:50:14.743Z,21.58
2018-04-22T23:52:40.589Z,21.56
2018-04-22T23:55:06.392Z,21.56
2018-04-22T23:57:32.288Z,21.56
2018-04-22T23:59:58.090Z,21.54
